sensor_id;sensor_type;location;lat;lon;timestamp;P1;durP1;ratioP1;P2;durP2;ratioP2
43861;SDS011;29510;52.140;5.034;2023-07-31T00:02:39;6.97;;;2.30;;
43861;SDS011;29510;52.140;5.034;2023-07-31T00:12:43;17.13;;;4.95;;
43861;SDS011;29510;52.140;5.034;2023-07-31T00:22:45;37.17;;;8.13;;
43861;SDS011;29510;52.140;5.034;2023-07-31T00:32:46;30.48;;;7.93;;
43861;SDS011;29510;52.140;5.034;2023-07-31T00:42:47;13.75;;;4.45;;
43861;SDS011;29510;52.140;5.034;2023-07-31T00:52:48;19.08;;;5.88;;
43861;SDS011;29510;52.140;5.034;2023-07-31T01:02:49;9.52;;;2.75;;
43861;SDS011;29510;52.140;5.034;2023-07-31T01:12:51;10.05;;;2.92;;
43861;SDS011;29510;52.140;5.034;2023-07-31T01:33:15;23.27;;;6.82;;
43861;SDS011;29510;52.140;5.034;2023-07-31T01:43:17;28.60;;;7.57;;
43861;SDS011;29510;52.140;5.034;2023-07-31T01:53:18;26.55;;;7.20;;
43861;SDS011;29510;52.140;5.034;2023-07-31T02:03:19;20.92;;;5.93;;
43861;SDS011;29510;52.140;5.034;2023-07-31T02:13:20;27.67;;;6.95;;
43861;SDS011;29510;52.140;5.034;2023-07-31T02:23:21;27.50;;;7.00;;
43861;SDS011;29510;52.140;5.034;2023-07-31T02:33:22;30.73;;;7.38;;
43861;SDS011;29510;52.140;5.034;2023-07-31T02:43:23;30.95;;;7.07;;
43861;SDS011;29510;52.140;5.034;2023-07-31T02:53:24;22.65;;;7.07;;
43861;SDS011;29510;52.140;5.034;2023-07-31T03:03:25;32.72;;;7.97;;
43861;SDS011;29510;52.140;5.034;2023-07-31T03:13:26;24.45;;;7.90;;
43861;SDS011;29510;52.140;5.034;2023-07-31T03:23:27;26.63;;;7.90;;
43861;SDS011;29510;52.140;5.034;2023-07-31T03:33:28;25.80;;;7.68;;
43861;SDS011;29510;52.140;5.034;2023-07-31T03:43:29;23.80;;;6.55;;
43861;SDS011;29510;52.140;5.034;2023-07-31T03:53:31;27.25;;;8.13;;
43861;SDS011;29510;52.140;5.034;2023-07-31T04:03:32;21.92;;;7.40;;
43861;SDS011;29510;52.140;5.034;2023-07-31T04:13:33;24.80;;;7.22;;
43861;SDS011;29510;52.140;5.034;2023-07-31T04:23:34;25.90;;;8.55;;
43861;SDS011;29510;52.140;5.034;2023-07-31T04:33:35;25.75;;;8.25;;
43861;SDS011;29510;52.140;5.034;2023-07-31T04:43:36;21.30;;;8.07;;
43861;SDS011;29510;52.140;5.034;2023-07-31T04:53:39;24.30;;;8.13;;
43861;SDS011;29510;52.140;5.034;2023-07-31T05:03:40;21.85;;;7.18;;
43861;SDS011;29510;52.140;5.034;2023-07-31T05:13:41;19.38;;;6.47;;
43861;SDS011;29510;52.140;5.034;2023-07-31T05:23:42;14.48;;;5.45;;
43861;SDS011;29510;52.140;5.034;2023-07-31T05:33:43;13.48;;;5.35;;
43861;SDS011;29510;52.140;5.034;2023-07-31T05:43:44;15.63;;;6.68;;
43861;SDS011;29510;52.140;5.034;2023-07-31T05:53:46;12.50;;;5.10;;
43861;SDS011;29510;52.140;5.034;2023-07-31T06:03:47;16.45;;;5.20;;
43861;SDS011;29510;52.140;5.034;2023-07-31T06:13:48;13.23;;;5.40;;
43861;SDS011;29510;52.140;5.034;2023-07-31T06:23:50;11.55;;;4.93;;
43861;SDS011;29510;52.140;5.034;2023-07-31T06:33:51;10.05;;;4.10;;
43861;SDS011;29510;52.140;5.034;2023-07-31T06:43:53;8.43;;;4.28;;
43861;SDS011;29510;52.140;5.034;2023-07-31T06:53:54;11.65;;;3.95;;
43861;SDS011;29510;52.140;5.034;2023-07-31T07:03:55;8.40;;;3.65;;
43861;SDS011;29510;52.140;5.034;2023-07-31T07:13:56;6.90;;;3.03;;
43861;SDS011;29510;52.140;5.034;2023-07-31T07:23:57;5.45;;;2.55;;
43861;SDS011;29510;52.140;5.034;2023-07-31T07:33:58;5.32;;;2.15;;
43861;SDS011;29510;52.140;5.034;2023-07-31T07:43:59;6.07;;;2.55;;
43861;SDS011;29510;52.140;5.034;2023-07-31T07:54:00;4.45;;;2.28;;
43861;SDS011;29510;52.140;5.034;2023-07-31T08:04:01;4.65;;;2.10;;
43861;SDS011;29510;52.140;5.034;2023-07-31T08:14:02;4.45;;;2.00;;
43861;SDS011;29510;52.140;5.034;2023-07-31T08:24:03;4.22;;;1.90;;
43861;SDS011;29510;52.140;5.034;2023-07-31T08:34:05;3.03;;;1.80;;
43861;SDS011;29510;52.140;5.034;2023-07-31T08:44:06;5.00;;;1.45;;
43861;SDS011;29510;52.140;5.034;2023-07-31T08:54:08;2.85;;;1.50;;
43861;SDS011;29510;52.140;5.034;2023-07-31T09:04:09;3.03;;;1.30;;
43861;SDS011;29510;52.140;5.034;2023-07-31T09:14:13;1.80;;;1.00;;
43861;SDS011;29510;52.140;5.034;2023-07-31T09:24:24;1.70;;;0.98;;
43861;SDS011;29510;52.140;5.034;2023-07-31T09:34:38;2.20;;;1.03;;
43861;SDS011;29510;52.140;5.034;2023-07-31T09:44:40;3.27;;;1.47;;
43861;SDS011;29510;52.140;5.034;2023-07-31T09:54:41;4.22;;;1.67;;
43861;SDS011;29510;52.140;5.034;2023-07-31T10:04:42;3.75;;;2.22;;
43861;SDS011;29510;52.140;5.034;2023-07-31T10:14:45;5.10;;;2.83;;
43861;SDS011;29510;52.140;5.034;2023-07-31T10:24:47;4.90;;;3.15;;
43861;SDS011;29510;52.140;5.034;2023-07-31T10:34:49;5.65;;;3.63;;
43861;SDS011;29510;52.140;5.034;2023-07-31T10:44:51;5.47;;;3.67;;
43861;SDS011;29510;52.140;5.034;2023-07-31T10:55:15;5.85;;;4.30;;
43861;SDS011;29510;52.140;5.034;2023-07-31T11:05:40;6.57;;;4.30;;
43861;SDS011;29510;52.140;5.034;2023-07-31T11:15:48;7.25;;;4.10;;
43861;SDS011;29510;52.140;5.034;2023-07-31T11:25:49;9.50;;;4.10;;
43861;SDS011;29510;52.140;5.034;2023-07-31T11:35:51;9.57;;;3.80;;
43861;SDS011;29510;52.140;5.034;2023-07-31T11:45:55;7.55;;;3.80;;
43861;SDS011;29510;52.140;5.034;2023-07-31T11:55:58;8.68;;;5.07;;
43861;SDS011;29510;52.140;5.034;2023-07-31T12:06:01;11.40;;;5.85;;
43861;SDS011;29510;52.140;5.034;2023-07-31T12:16:03;11.38;;;6.40;;
43861;SDS011;29510;52.140;5.034;2023-07-31T12:26:14;10.23;;;6.35;;
43861;SDS011;29510;52.140;5.034;2023-07-31T12:36:18;13.45;;;8.02;;
43861;SDS011;29510;52.140;5.034;2023-07-31T12:46:21;10.85;;;6.97;;
43861;SDS011;29510;52.140;5.034;2023-07-31T12:56:22;9.95;;;7.13;;
43861;SDS011;29510;52.140;5.034;2023-07-31T13:06:24;9.95;;;6.20;;
43861;SDS011;29510;52.140;5.034;2023-07-31T13:16:25;8.13;;;6.20;;
43861;SDS011;29510;52.140;5.034;2023-07-31T13:26:28;9.73;;;5.50;;
43861;SDS011;29510;52.140;5.034;2023-07-31T13:36:29;6.20;;;4.10;;
43861;SDS011;29510;52.140;5.034;2023-07-31T13:46:30;4.30;;;3.50;;
43861;SDS011;29510;52.140;5.034;2023-07-31T13:56:32;3.25;;;2.60;;
43861;SDS011;29510;52.140;5.034;2023-07-31T14:06:34;3.10;;;2.45;;
43861;SDS011;29510;52.140;5.034;2023-07-31T14:16:35;4.03;;;1.65;;
43861;SDS011;29510;52.140;5.034;2023-07-31T14:26:36;4.13;;;1.98;;
43861;SDS011;29510;52.140;5.034;2023-07-31T14:36:37;2.80;;;1.45;;
43861;SDS011;29510;52.140;5.034;2023-07-31T14:46:38;2.00;;;1.17;;
43861;SDS011;29510;52.140;5.034;2023-07-31T14:56:39;2.55;;;1.65;;
43861;SDS011;29510;52.140;5.034;2023-07-31T15:06:40;2.45;;;1.35;;
43861;SDS011;29510;52.140;5.034;2023-07-31T15:16:41;4.40;;;2.00;;
43861;SDS011;29510;52.140;5.034;2023-07-31T15:26:42;5.00;;;2.50;;
43861;SDS011;29510;52.140;5.034;2023-07-31T15:36:43;6.78;;;4.47;;
43861;SDS011;29510;52.140;5.034;2023-07-31T15:46:44;5.75;;;4.50;;
43861;SDS011;29510;52.140;5.034;2023-07-31T15:56:45;5.40;;;4.30;;
43861;SDS011;29510;52.140;5.034;2023-07-31T16:06:46;5.97;;;3.53;;
43861;SDS011;29510;52.140;5.034;2023-07-31T16:16:47;5.18;;;3.03;;
43861;SDS011;29510;52.140;5.034;2023-07-31T16:26:49;3.75;;;1.98;;
43861;SDS011;29510;52.140;5.034;2023-07-31T16:36:50;3.45;;;0.90;;
43861;SDS011;29510;52.140;5.034;2023-07-31T16:46:51;3.70;;;1.80;;
43861;SDS011;29510;52.140;5.034;2023-07-31T16:56:52;4.25;;;2.88;;
43861;SDS011;29510;52.140;5.034;2023-07-31T17:06:53;4.22;;;2.72;;
43861;SDS011;29510;52.140;5.034;2023-07-31T17:16:54;3.78;;;2.70;;
43861;SDS011;29510;52.140;5.034;2023-07-31T17:26:55;3.60;;;2.30;;
43861;SDS011;29510;52.140;5.034;2023-07-31T17:36:56;3.05;;;1.90;;
43861;SDS011;29510;52.140;5.034;2023-07-31T17:46:57;6.22;;;2.13;;
43861;SDS011;29510;52.140;5.034;2023-07-31T17:56:59;5.47;;;3.13;;
43861;SDS011;29510;52.140;5.034;2023-07-31T18:07:00;4.82;;;3.10;;
43861;SDS011;29510;52.140;5.034;2023-07-31T18:17:01;6.50;;;2.80;;
43861;SDS011;29510;52.140;5.034;2023-07-31T18:27:04;8.20;;;3.58;;
43861;SDS011;29510;52.140;5.034;2023-07-31T18:37:05;7.95;;;3.35;;
43861;SDS011;29510;52.140;5.034;2023-07-31T18:47:06;5.05;;;2.95;;
43861;SDS011;29510;52.140;5.034;2023-07-31T18:57:07;9.98;;;3.42;;
43861;SDS011;29510;52.140;5.034;2023-07-31T19:07:08;7.80;;;3.30;;
43861;SDS011;29510;52.140;5.034;2023-07-31T19:17:09;7.88;;;3.53;;
43861;SDS011;29510;52.140;5.034;2023-07-31T19:27:10;9.52;;;3.95;;
43861;SDS011;29510;52.140;5.034;2023-07-31T19:37:11;7.60;;;3.38;;
43861;SDS011;29510;52.140;5.034;2023-07-31T19:47:12;7.13;;;2.63;;
43861;SDS011;29510;52.140;5.034;2023-07-31T19:57:13;7.13;;;2.40;;
43861;SDS011;29510;52.140;5.034;2023-07-31T20:07:15;8.25;;;2.30;;
43861;SDS011;29510;52.140;5.034;2023-07-31T20:17:16;8.70;;;2.40;;
43861;SDS011;29510;52.140;5.034;2023-07-31T20:27:18;6.97;;;1.90;;
43861;SDS011;29510;52.140;5.034;2023-07-31T20:37:22;8.20;;;2.67;;
43861;SDS011;29510;52.140;5.034;2023-07-31T20:47:23;9.65;;;3.50;;
43861;SDS011;29510;52.140;5.034;2023-07-31T20:57:24;9.00;;;3.20;;
43861;SDS011;29510;52.140;5.034;2023-07-31T21:07:25;5.80;;;2.33;;
43861;SDS011;29510;52.140;5.034;2023-07-31T21:17:26;6.75;;;2.35;;
43861;SDS011;29510;52.140;5.034;2023-07-31T21:27:27;12.45;;;2.40;;
43861;SDS011;29510;52.140;5.034;2023-07-31T21:37:29;7.25;;;2.20;;
43861;SDS011;29510;52.140;5.034;2023-07-31T21:47:30;7.13;;;2.20;;
43861;SDS011;29510;52.140;5.034;2023-07-31T21:57:31;17.85;;;2.35;;
43861;SDS011;29510;52.140;5.034;2023-07-31T22:07:32;6.25;;;2.78;;
43861;SDS011;29510;52.140;5.034;2023-07-31T22:17:33;10.23;;;2.35;;
43861;SDS011;29510;52.140;5.034;2023-07-31T22:27:34;8.05;;;1.90;;
43861;SDS011;29510;52.140;5.034;2023-07-31T22:37:35;6.05;;;2.13;;
43861;SDS011;29510;52.140;5.034;2023-07-31T22:47:36;6.85;;;2.58;;
43861;SDS011;29510;52.140;5.034;2023-07-31T22:57:40;8.30;;;2.75;;
43861;SDS011;29510;52.140;5.034;2023-07-31T23:07:41;6.50;;;2.55;;
43861;SDS011;29510;52.140;5.034;2023-07-31T23:17:42;5.28;;;2.78;;
43861;SDS011;29510;52.140;5.034;2023-07-31T23:27:43;6.22;;;2.80;;
43861;SDS011;29510;52.140;5.034;2023-07-31T23:37:44;7.47;;;3.38;;
43861;SDS011;29510;52.140;5.034;2023-07-31T23:47:46;8.48;;;3.53;;
43861;SDS011;29510;52.140;5.034;2023-07-31T23:57:47;9.95;;;3.30;;
